Time;durP1;ratioP1;P1;durP2;ratioP2;P2;SDS_P1;SDS_P2;PMS_P1;PMS_P2;Temp;Humidity;BMP_temperature;BMP_pressure;BME280_temperature;BME280_humidity;BME280_pressure;Samples;Min_cycle;Max_cycle;Signal;HPM_P1;HPM_P2
2022/10/16 00:01:11;;;;;;;1.45;1.35;;;;;;;;;;5013644;28;20456;-65
2022/10/16 00:03:38;;;;;;;1.60;1.13;;;;;;;;;;5014036;28;20129;-64
2022/10/16 00:06:05;;;;;;;1.10;0.98;;;;;;;;;;5013870;28;20085;-65
2022/10/16 00:08:32;;;;;;;1.35;1.10;;;;;;;;;;5013002;28;20053;-65
2022/10/16 00:11:00;;;;;;;2.03;1.52;;;;;;;;;;5013818;28;20145;-66
2022/10/16 00:13:26;;;;;;;2.22;1.10;;;;;;;;;;5013634;28;20095;-64
2022/10/16 00:15:56;;;;;;;1.20;1.10;;;;;;;;;;5013596;28;20085;-64
2022/10/16 00:18:23;;;;;;;1.20;1.10;;;;;;;;;;5013201;28;20697;-65
2022/10/16 00:20:50;;;;;;;9.02;1.83;;;;;;;;;;5013127;28;20096;-65
2022/10/16 00:23:17;;;;;;;2.25;1.23;;;;;;;;;;5013502;28;20137;-64
2022/10/16 00:25:44;;;;;;;1.77;1.02;;;;;;;;;;5013561;28;20053;-65
2022/10/16 00:28:10;;;;;;;4.93;1.23;;;;;;;;;;5012677;28;20092;-65
2022/10/16 00:30:38;;;;;;;4.40;1.40;;;;;;;;;;5013006;28;20131;-63
2022/10/16 00:33:04;;;;;;;4.25;1.25;;;;;;;;;;5013235;28;20108;-64
2022/10/16 00:35:31;;;;;;;1.15;1.05;;;;;;;;;;5013072;28;20061;-64
2022/10/16 00:37:58;;;;;;;1.55;1.30;;;;;;;;;;5012610;28;20572;-64
2022/10/16 00:40:24;;;;;;;3.45;1.65;;;;;;;;;;5012874;28;20081;-64
2022/10/16 00:42:51;;;;;;;2.42;1.08;;;;;;;;;;5013243;28;20421;-65
2022/10/16 00:45:17;;;;;;;5.63;1.40;;;;;;;;;;5013176;28;20046;-63
2022/10/16 00:47:45;;;;;;;1.15;1.00;;;;;;;;;;5012839;28;20140;-64
2022/10/16 00:50:28;;;;;;;3.90;1.10;;;;;;;;;;5011284;28;20069;-65
2022/10/16 00:52:55;;;;;;;1.35;1.13;;;;;;;;;;5011945;28;20148;-65
2022/10/16 00:55:22;;;;;;;4.53;1.10;;;;;;;;;;4995440;28;20470;-65
2022/10/16 00:57:50;;;;;;;2.30;1.20;;;;;;;;;;5011177;28;20664;-65
2022/10/16 01:00:21;;;;;;;3.63;1.30;;;;;;;;;;5012514;28;20513;-65
2022/10/16 01:02:59;;;;;;;2.45;1.33;;;;;;;;;;5012602;28;20138;-65
2022/10/16 01:05:42;;;;;;;1.20;1.10;;;;;;;;;;5013035;28;20525;-65
2022/10/16 01:08:18;;;;;;;2.17;1.45;;;;;;;;;;4996704;28;20421;-65
2022/10/16 01:10:53;;;;;;;1.70;1.30;;;;;;;;;;5011365;28;20092;-64
2022/10/16 01:13:28;;;;;;;3.65;1.15;;;;;;;;;;4993853;28;20053;-63
2022/10/16 01:16:06;;;;;;;2.65;1.20;;;;;;;;;;4995463;28;20208;-65
2022/10/16 01:18:45;;;;;;;1.70;1.23;;;;;;;;;;5010680;28;20100;-65
2022/10/16 01:21:16;;;;;;;1.30;1.20;;;;;;;;;;4995905;28;20077;-66
2022/10/16 01:23:51;;;;;;;1.08;0.98;;;;;;;;;;5011069;28;20074;-64
2022/10/16 01:26:45;;;;;;;1.73;1.33;;;;;;;;;;5012102;28;20081;-66
2022/10/16 01:29:20;;;;;;;3.05;1.17;;;;;;;;;;5010613;28;20081;-65
2022/10/16 01:31:51;;;;;;;2.70;1.30;;;;;;;;;;5010958;28;20472;-65
2022/10/16 01:34:39;;;;;;;2.30;1.10;;;;;;;;;;4995466;28;20042;-65
2022/10/16 01:37:12;;;;;;;3.72;1.00;;;;;;;;;;5010977;28;20456;-65
2022/10/16 01:39:39;;;;;;;1.40;1.00;;;;;;;;;;4995070;28;20135;-66
2022/10/16 01:42:23;;;;;;;1.67;1.10;;;;;;;;;;5011012;28;20081;-65
2022/10/16 01:44:50;;;;;;;1.73;1.10;;;;;;;;;;4994823;28;20497;-65
2022/10/16 01:47:17;;;;;;;1.95;1.15;;;;;;;;;;4994857;28;20216;-65
2022/10/16 01:49:43;;;;;;;1.30;1.17;;;;;;;;;;4977960;28;20145;-64
2022/10/16 01:52:13;;;;;;;1.50;1.20;;;;;;;;;;5010899;28;20046;-65
2022/10/16 01:54:41;;;;;;;1.10;0.88;;;;;;;;;;5010769;28;20050;-66
2022/10/16 01:57:07;;;;;;;1.48;0.93;;;;;;;;;;5010703;28;20505;-65
2022/10/16 01:59:37;;;;;;;1.73;1.30;;;;;;;;;;5010337;28;20054;-66
2022/10/16 02:02:07;;;;;;;1.88;1.30;;;;;;;;;;5010785;28;20445;-64
2022/10/16 02:04:42;;;;;;;2.20;1.35;;;;;;;;;;5012004;28;20073;-65
2022/10/16 02:07:09;;;;;;;2.50;0.95;;;;;;;;;;5010774;28;20050;-65
2022/10/16 02:09:35;;;;;;;3.05;1.52;;;;;;;;;;5009907;28;20425;-65
2022/10/16 02:12:19;;;;;;;4.13;1.10;;;;;;;;;;5010778;28;20066;-65
2022/10/16 02:14:46;;;;;;;1.75;1.10;;;;;;;;;;5009573;28;20582;-63
2022/10/16 02:17:15;;;;;;;2.45;1.02;;;;;;;;;;5011709;28;20050;-64
2022/10/16 02:19:42;;;;;;;3.20;1.63;;;;;;;;;;5010752;28;20070;-63
2022/10/16 02:22:12;;;;;;;2.97;1.13;;;;;;;;;;5010713;28;20058;-66
2022/10/16 02:25:01;;;;;;;2.55;1.00;;;;;;;;;;5010890;28;20505;-65
2022/10/16 02:27:50;;;;;;;4.05;1.25;;;;;;;;;;5010709;28;20050;-64
2022/10/16 02:30:25;;;;;;;5.15;1.30;;;;;;;;;;5011179;28;20077;-65
2022/10/16 02:32:52;;;;;;;6.63;1.55;;;;;;;;;;5011643;28;20497;-64
2022/10/16 02:35:20;;;;;;;3.33;1.40;;;;;;;;;;5011774;28;20085;-64
2022/10/16 02:37:47;;;;;;;4.53;1.23;;;;;;;;;;4994957;28;20053;-65
2022/10/16 02:40:14;;;;;;;3.63;1.48;;;;;;;;;;4997738;28;20085;-64
2022/10/16 02:42:41;;;;;;;2.35;1.38;;;;;;;;;;4997915;28;20056;-65
2022/10/16 02:45:09;;;;;;;3.10;1.40;;;;;;;;;;5015457;28;20259;-65
2022/10/16 02:47:36;;;;;;;3.25;1.27;;;;;;;;;;5015677;28;20058;-65
2022/10/16 02:50:03;;;;;;;3.25;1.30;;;;;;;;;;5014473;28;20112;-65
2022/10/16 02:52:29;;;;;;;4.57;1.95;;;;;;;;;;5015137;28;20128;-65
2022/10/16 02:54:56;;;;;;;3.78;1.40;;;;;;;;;;5015067;28;20049;-66
2022/10/16 02:57:23;;;;;;;3.38;1.48;;;;;;;;;;5014839;28;20571;-65
2022/10/16 02:59:50;;;;;;;2.88;1.70;;;;;;;;;;5014483;28;20054;-65
2022/10/16 03:02:16;;;;;;;2.63;1.35;;;;;;;;;;5015172;28;20096;-65
2022/10/16 03:04:43;;;;;;;3.05;1.30;;;;;;;;;;5015059;28;20046;-65
2022/10/16 03:07:10;;;;;;;3.10;1.20;;;;;;;;;;5014981;28;20053;-65
2022/10/16 03:09:36;;;;;;;3.13;1.23;;;;;;;;;;5013091;28;20049;-65
2022/10/16 03:12:03;;;;;;;2.53;1.25;;;;;;;;;;5014584;28;20493;-66
2022/10/16 03:14:30;;;;;;;1.90;1.70;;;;;;;;;;5013454;28;20100;-65
2022/10/16 03:16:56;;;;;;;1.85;1.38;;;;;;;;;;5013732;28;20124;-66
2022/10/16 03:19:24;;;;;;;1.73;1.25;;;;;;;;;;5014080;28;20046;-64
2022/10/16 03:21:50;;;;;;;2.22;1.40;;;;;;;;;;5014646;28;20559;-65
2022/10/16 03:24:17;;;;;;;3.70;1.40;;;;;;;;;;5014576;28;20050;-64
2022/10/16 03:26:44;;;;;;;2.53;1.35;;;;;;;;;;5014694;28;20081;-64
2022/10/16 03:29:10;;;;;;;1.55;1.15;;;;;;;;;;5013847;28;20096;-66
2022/10/16 03:31:37;;;;;;;3.53;1.35;;;;;;;;;;5015168;28;20050;-63
2022/10/16 03:34:03;;;;;;;3.17;1.27;;;;;;;;;;5015412;28;20050;-64
2022/10/16 03:36:30;;;;;;;2.72;1.17;;;;;;;;;;5015339;28;20116;-63
2022/10/16 03:38:57;;;;;;;2.88;1.10;;;;;;;;;;5014608;28;20089;-62
2022/10/16 03:41:23;;;;;;;1.85;1.00;;;;;;;;;;5013386;28;20050;-63
2022/10/16 03:43:50;;;;;;;4.82;1.20;;;;;;;;;;5014903;28;20500;-63
2022/10/16 03:46:17;;;;;;;1.38;1.13;;;;;;;;;;5014895;28;20080;-62
2022/10/16 03:48:43;;;;;;;3.97;1.17;;;;;;;;;;5014026;28;20050;-62
2022/10/16 03:51:10;;;;;;;1.30;1.20;;;;;;;;;;5014477;28;20104;-63
2022/10/16 03:53:36;;;;;;;4.78;1.20;;;;;;;;;;5013901;28;20088;-63
2022/10/16 03:56:03;;;;;;;3.50;1.33;;;;;;;;;;5013864;28;20485;-63
2022/10/16 03:58:30;;;;;;;4.45;1.65;;;;;;;;;;5013609;28;20053;-62
2022/10/16 04:00:56;;;;;;;2.45;1.60;;;;;;;;;;5014258;28;20057;-63
2022/10/16 04:03:23;;;;;;;1.80;1.17;;;;;;;;;;5014643;28;20493;-63
2022/10/16 04:05:50;;;;;;;1.45;1.35;;;;;;;;;;5014925;28;20468;-64
2022/10/16 04:08:16;;;;;;;5.05;2.70;;;;;;;;;;5013281;28;20053;-63
2022/10/16 04:10:43;;;;;;;3.50;2.22;;;;;;;;;;5013756;28;20100;-62
2022/10/16 04:13:10;;;;;;;4.25;1.42;;;;;;;;;;5012922;28;20057;-63
2022/10/16 04:15:37;;;;;;;4.32;1.30;;;;;;;;;;5013536;28;20060;-62
2022/10/16 04:18:04;;;;;;;10.82;3.00;;;;;;;;;;5012155;28;20398;-62
2022/10/16 04:20:31;;;;;;;4.22;1.50;;;;;;;;;;5013425;28;20092;-63
2022/10/16 04:22:58;;;;;;;4.63;1.60;;;;;;;;;;5013605;28;20571;-62
2022/10/16 04:25:25;;;;;;;2.75;1.58;;;;;;;;;;5013590;28;20188;-63
2022/10/16 04:27:54;;;;;;;1.55;1.45;;;;;;;;;;5013152;28;20463;-62
2022/10/16 04:30:21;;;;;;;1.85;1.70;;;;;;;;;;5013020;28;20464;-62
2022/10/16 04:32:51;;;;;;;1.80;1.50;;;;;;;;;;5013449;28;20420;-62
2022/10/16 04:35:19;;;;;;;3.45;1.40;;;;;;;;;;5013130;28;20452;-62
2022/10/16 04:37:46;;;;;;;2.88;1.50;;;;;;;;;;5013426;28;20169;-62
2022/10/16 04:40:13;;;;;;;2.63;1.50;;;;;;;;;;5012868;28;20563;-62
2022/10/16 04:42:40;;;;;;;2.85;1.38;;;;;;;;;;5013331;28;20058;-62
2022/10/16 04:45:07;;;;;;;1.98;1.45;;;;;;;;;;5013325;28;20056;-62
2022/10/16 04:47:40;;;;;;;;;;;;;;;;;;5013711;28;20141;-62
2022/10/16 04:50:06;;;;;;;4.78;1.40;;;;;;;;;;5012476;28;19921;-62
2022/10/16 04:52:33;;;;;;;3.35;1.17;;;;;;;;;;5013123;28;20076;-64
2022/10/16 04:55:05;;;;;;;3.97;1.48;;;;;;;;;;5012907;28;20152;-61
2022/10/16 04:57:33;;;;;;;3.58;1.42;;;;;;;;;;5013038;28;20050;-63
2022/10/16 04:59:59;;;;;;;2.38;1.60;;;;;;;;;;5011744;28;20054;-63
2022/10/16 05:02:26;;;;;;;2.88;2.13;;;;;;;;;;5012833;28;20058;-62
2022/10/16 05:04:53;;;;;;;4.57;1.65;;;;;;;;;;5013281;28;20057;-61
2022/10/16 05:07:19;;;;;;;1.83;1.35;;;;;;;;;;5013095;28;20053;-62
2022/10/16 05:09:46;;;;;;;1.58;1.30;;;;;;;;;;5011984;28;20054;-62
2022/10/16 05:12:13;;;;;;;7.28;1.80;;;;;;;;;;5012857;28;20045;-62
2022/10/16 05:14:39;;;;;;;2.70;1.35;;;;;;;;;;5011488;28;20120;-62
2022/10/16 05:17:06;;;;;;;4.70;1.77;;;;;;;;;;5012733;28;20099;-64
2022/10/16 05:19:32;;;;;;;2.72;1.20;;;;;;;;;;5012036;28;20100;-62
2022/10/16 05:21:59;;;;;;;2.42;1.48;;;;;;;;;;5012771;28;20053;-62
2022/10/16 05:24:26;;;;;;;2.80;2.22;;;;;;;;;;5012917;28;20301;-62
2022/10/16 05:26:52;;;;;;;5.65;1.60;;;;;;;;;;5013084;28;20081;-62
2022/10/16 05:29:19;;;;;;;6.82;1.90;;;;;;;;;;5011897;28;20049;-62
2022/10/16 05:31:46;;;;;;;2.67;1.80;;;;;;;;;;5012623;28;20582;-62
2022/10/16 05:34:12;;;;;;;1.45;1.30;;;;;;;;;;5011761;28;20046;-63
2022/10/16 05:36:39;;;;;;;5.20;1.40;;;;;;;;;;5012721;28;20485;-63
2022/10/16 05:39:05;;;;;;;1.83;1.50;;;;;;;;;;5010740;28;20100;-62
2022/10/16 05:41:32;;;;;;;3.70;1.45;;;;;;;;;;5012316;28;20120;-62
2022/10/16 05:43:59;;;;;;;2.78;1.40;;;;;;;;;;5012702;28;20160;-64
2022/10/16 05:46:25;;;;;;;1.90;1.30;;;;;;;;;;5013237;28;20099;-63
2022/10/16 05:48:53;;;;;;;1.92;1.30;;;;;;;;;;5012440;28;20099;-62
2022/10/16 05:51:19;;;;;;;5.57;1.67;;;;;;;;;;5012804;28;20551;-63
2022/10/16 05:53:46;;;;;;;3.05;1.73;;;;;;;;;;5012834;28;20100;-64
2022/10/16 05:56:13;;;;;;;6.25;1.73;;;;;;;;;;5012514;28;20049;-63
2022/10/16 05:58:44;;;;;;;3.22;1.40;;;;;;;;;;5012695;28;20046;-62
2022/10/16 06:01:13;;;;;;;3.75;1.40;;;;;;;;;;5013022;28;20432;-62
2022/10/16 06:03:40;;;;;;;1.65;1.45;;;;;;;;;;5012887;28;20061;-62
2022/10/16 06:06:36;;;;;;;2.88;1.42;;;;;;;;;;5012844;28;20046;-62
2022/10/16 06:09:03;;;;;;;3.53;1.58;;;;;;;;;;5008096;28;20120;-63
2022/10/16 06:11:31;;;;;;;3.95;1.63;;;;;;;;;;5013155;28;20050;-64
2022/10/16 06:14:01;;;;;;;2.40;1.40;;;;;;;;;;5015328;28;20100;-63
2022/10/16 06:16:28;;;;;;;3.75;1.40;;;;;;;;;;5016090;28;20096;-63
2022/10/16 06:18:55;;;;;;;6.90;1.58;;;;;;;;;;5015400;28;20077;-62
2022/10/16 06:21:26;;;;;;;4.85;1.60;;;;;;;;;;5016235;28;20100;-63
2022/10/16 06:23:54;;;;;;;4.07;1.60;;;;;;;;;;5016128;28;20421;-62
2022/10/16 06:26:22;;;;;;;7.60;2.75;;;;;;;;;;5016106;28;20057;-62
2022/10/16 06:28:49;;;;;;;1.83;1.55;;;;;;;;;;5015229;28;20046;-62
2022/10/16 06:31:16;;;;;;;2.20;1.65;;;;;;;;;;5016095;28;20054;-65
2022/10/16 06:33:43;;;;;;;2.92;1.67;;;;;;;;;;5016779;28;20050;-64
2022/10/16 06:36:12;;;;;;;3.92;1.55;;;;;;;;;;5016841;28;20057;-65
2022/10/16 06:38:39;;;;;;;5.25;1.92;;;;;;;;;;5016155;28;20054;-64
2022/10/16 06:41:06;;;;;;;2.38;1.80;;;;;;;;;;5017001;28;20053;-65
2022/10/16 06:43:35;;;;;;;3.20;1.33;;;;;;;;;;5016647;28;20046;-64
2022/10/16 06:46:02;;;;;;;1.55;1.30;;;;;;;;;;5016615;28;20120;-64
2022/10/16 06:48:29;;;;;;;6.50;1.65;;;;;;;;;;5014696;28;20192;-64
2022/10/16 06:50:57;;;;;;;2.38;1.50;;;;;;;;;;5016720;28;20054;-64
2022/10/16 06:53:24;;;;;;;2.90;1.20;;;;;;;;;;5015631;28;20057;-62
2022/10/16 06:55:51;;;;;;;3.65;1.40;;;;;;;;;;5015624;28;20536;-64
2022/10/16 06:58:17;;;;;;;3.10;1.45;;;;;;;;;;5015125;28;20497;-62
2022/10/16 07:00:44;;;;;;;1.85;1.10;;;;;;;;;;5015368;28;20100;-62
2022/10/16 07:03:10;;;;;;;1.80;1.20;;;;;;;;;;5015384;28;20105;-64
2022/10/16 07:05:41;;;;;;;2.25;1.30;;;;;;;;;;5015453;28;20045;-62
2022/10/16 07:08:08;;;;;;;2.75;1.23;;;;;;;;;;5014796;28;20046;-62
2022/10/16 07:10:35;;;;;;;4.50;1.42;;;;;;;;;;5015075;28;20085;-64
2022/10/16 07:13:01;;;;;;;4.80;1.40;;;;;;;;;;5012667;28;20112;-63
2022/10/16 07:15:28;;;;;;;5.30;1.13;;;;;;;;;;5013732;28;20116;-64
2022/10/16 07:17:55;;;;;;;2.22;1.10;;;;;;;;;;5014849;28;20046;-65
2022/10/16 07:20:21;;;;;;;2.13;1.20;;;;;;;;;;5015305;28;20049;-64
2022/10/16 07:22:48;;;;;;;2.78;1.08;;;;;;;;;;5015571;28;20049;-63
2022/10/16 07:25:14;;;;;;;30.75;1.77;;;;;;;;;;5015248;28;20444;-62
2022/10/16 07:27:41;;;;;;;3.47;1.23;;;;;;;;;;5015639;28;20054;-64
2022/10/16 07:30:08;;;;;;;2.85;1.15;;;;;;;;;;5014612;28;20050;-64
2022/10/16 07:32:35;;;;;;;1.60;1.20;;;;;;;;;;5015291;28;20559;-62
2022/10/16 07:35:01;;;;;;;3.58;1.20;;;;;;;;;;5015398;28;20049;-64
2022/10/16 07:37:28;;;;;;;3.00;1.20;;;;;;;;;;5014947;28;20042;-63
2022/10/16 07:39:55;;;;;;;1.58;1.00;;;;;;;;;;5014119;28;20081;-63
2022/10/16 07:42:21;;;;;;;2.13;1.10;;;;;;;;;;5014822;28;20497;-64
2022/10/16 07:44:48;;;;;;;3.17;1.20;;;;;;;;;;5014777;28;20050;-63
2022/10/16 07:47:15;;;;;;;1.52;1.15;;;;;;;;;;5015245;28;20049;-63
2022/10/16 07:49:41;;;;;;;2.15;1.17;;;;;;;;;;5014695;28;20058;-62
2022/10/16 07:52:08;;;;;;;2.75;1.60;;;;;;;;;;5015386;28;20107;-64
2022/10/16 07:54:34;;;;;;;4.43;2.60;;;;;;;;;;5014746;28;20046;-62
2022/10/16 07:57:01;;;;;;;4.97;2.03;;;;;;;;;;5014273;28;20493;-62
2022/10/16 07:59:28;;;;;;;1.85;1.60;;;;;;;;;;5013294;28;20090;-62
2022/10/16 08:01:54;;;;;;;3.03;1.73;;;;;;;;;;5014148;28;20045;-62
2022/10/16 08:04:21;;;;;;;3.55;1.60;;;;;;;;;;5014255;28;20100;-62
2022/10/16 08:06:49;;;;;;;4.20;1.50;;;;;;;;;;5014119;28;20046;-62
2022/10/16 08:09:15;;;;;;;2.40;1.45;;;;;;;;;;5013312;28;20085;-62
2022/10/16 08:11:42;;;;;;;2.03;1.80;;;;;;;;;;5013987;28;20050;-62
2022/10/16 08:14:08;;;;;;;2.25;1.38;;;;;;;;;;5013148;28;20123;-64
2022/10/16 08:16:35;;;;;;;5.88;1.40;;;;;;;;;;5014593;28;20096;-63
2022/10/16 08:19:02;;;;;;;2.67;1.85;;;;;;;;;;5013935;28;20065;-63
2022/10/16 08:21:29;;;;;;;3.00;1.27;;;;;;;;;;5015149;28;20046;-63
2022/10/16 08:23:55;;;;;;;6.15;1.60;;;;;;;;;;5014997;28;20050;-62
2022/10/16 08:26:25;;;;;;;1.58;1.30;;;;;;;;;;5014473;28;20046;-63
2022/10/16 08:28:51;;;;;;;2.90;1.50;;;;;;;;;;5011786;28;20501;-63
2022/10/16 08:31:19;;;;;;;1.83;1.38;;;;;;;;;;5013600;28;20060;-64
2022/10/16 08:33:46;;;;;;;3.97;1.48;;;;;;;;;;5013900;28;20497;-63
2022/10/16 08:36:14;;;;;;;1.85;1.33;;;;;;;;;;5013589;28;20463;-62
2022/10/16 08:38:40;;;;;;;2.38;1.30;;;;;;;;;;5013117;28;20046;-62
2022/10/16 08:41:17;;;;;;;3.88;1.30;;;;;;;;;;5012166;28;20081;-63
2022/10/16 08:44:03;;;;;;;6.00;1.30;;;;;;;;;;5012435;28;20108;-62
2022/10/16 08:46:33;;;;;;;1.40;1.27;;;;;;;;;;5012057;28;20050;-63
2022/10/16 08:49:00;;;;;;;5.30;1.10;;;;;;;;;;5011374;28;20100;-63
2022/10/16 08:51:31;;;;;;;2.75;1.23;;;;;;;;;;4995431;28;20053;-62
2022/10/16 08:54:18;;;;;;;3.40;1.00;;;;;;;;;;5012845;28;20080;-63
2022/10/16 08:56:45;;;;;;;2.88;1.10;;;;;;;;;;5012340;28;20042;-62
2022/10/16 08:59:19;;;;;;;2.75;1.15;;;;;;;;;;5012267;28;20101;-63
2022/10/16 09:01:47;;;;;;;1.60;0.88;;;;;;;;;;4996368;28;20046;-62
2022/10/16 09:04:38;;;;;;;2.53;1.20;;;;;;;;;;5011729;28;20563;-64
2022/10/16 09:07:12;;;;;;;3.60;0.90;;;;;;;;;;5011867;28;20072;-62
2022/10/16 09:10:01;;;;;;;1.48;1.13;;;;;;;;;;5012214;28;20556;-62
2022/10/16 09:12:37;;;;;;;1.70;1.20;;;;;;;;;;5011552;28;20073;-64
2022/10/16 09:15:14;;;;;;;2.42;1.10;;;;;;;;;;5009993;28;20054;-64
2022/10/16 09:17:53;;;;;;;2.40;1.10;;;;;;;;;;5012778;28;20112;-62
2022/10/16 09:20:22;;;;;;;2.42;1.02;;;;;;;;;;4995977;28;20053;-64
2022/10/16 09:22:49;;;;;;;3.85;1.13;;;;;;;;;;5013508;28;20050;-63
2022/10/16 09:25:18;;;;;;;4.40;1.10;;;;;;;;;;4996863;28;20049;-63
2022/10/16 09:27:47;;;;;;;4.22;1.10;;;;;;;;;;5013157;28;20042;-64
2022/10/16 09:30:16;;;;;;;1.42;1.25;;;;;;;;;;5011724;28;20291;-62
2022/10/16 09:32:43;;;;;;;2.00;1.08;;;;;;;;;;5034407;22;20042;-64
2022/10/16 09:35:36;;;;;;;1.52;1.23;;;;;;;;;;5027091;28;20085;-65
2022/10/16 09:38:02;;;;;;;2.35;0.88;;;;;;;;;;5007798;28;20206;-65
2022/10/16 09:40:37;;;;;;;3.17;0.85;;;;;;;;;;5027042;28;20098;-65
2022/10/16 09:43:29;;;;;;;1.30;0.80;;;;;;;;;;5012102;28;20054;-65
2022/10/16 09:45:57;;;;;;;0.80;0.80;;;;;;;;;;4995214;28;20081;-65
2022/10/16 09:48:24;;;;;;;2.83;0.95;;;;;;;;;;5010033;28;20092;-65
2022/10/16 09:51:00;;;;;;;3.05;1.23;;;;;;;;;;4994496;28;20054;-66
2022/10/16 09:53:41;;;;;;;6.65;1.13;;;;;;;;;;5011990;28;20054;-64
2022/10/16 09:56:10;;;;;;;3.90;1.25;;;;;;;;;;4994977;28;20050;-65
2022/10/16 09:58:44;;;;;;;2.17;1.05;;;;;;;;;;5010097;28;20058;-65
2022/10/16 10:01:13;;;;;;;2.72;1.27;;;;;;;;;;5010702;28;20049;-65
2022/10/16 10:03:41;;;;;;;3.30;1.17;;;;;;;;;;5010677;28;20045;-64
2022/10/16 10:06:27;;;;;;;2.42;1.10;;;;;;;;;;5010776;28;20050;-65
2022/10/16 10:09:06;;;;;;;3.40;1.05;;;;;;;;;;5011449;28;20460;-65
2022/10/16 10:11:55;;;;;;;1.55;0.95;;;;;;;;;;5011800;28;20054;-64
2022/10/16 10:14:38;;;;;;;2.83;0.90;;;;;;;;;;5009231;28;20054;-64
2022/10/16 10:17:04;;;;;;;7.22;2.28;;;;;;;;;;4996070;28;20493;-64
2022/10/16 10:19:52;;;;;;;2.58;1.02;;;;;;;;;;5011273;28;20058;-66
2022/10/16 10:22:40;;;;;;;1.27;0.90;;;;;;;;;;5011683;28;20471;-64
2022/10/16 10:25:13;;;;;;;1.50;1.10;;;;;;;;;;5010485;28;20546;-64
2022/10/16 10:27:45;;;;;;;;;;;;;;;;;;5012217;28;20077;-65
2022/10/16 10:30:17;;;;;;;5.30;1.20;;;;;;;;;;5011587;28;19925;-65
2022/10/16 10:32:58;;;;;;;2.47;1.00;;;;;;;;;;5011470;28;20050;-64
2022/10/16 10:35:47;;;;;;;4.95;1.35;;;;;;;;;;4995544;28;20393;-63
2022/10/16 10:38:37;;;;;;;1.95;1.17;;;;;;;;;;5003399;28;20089;-65
2022/10/16 10:41:16;;;;;;;2.90;1.13;;;;;;;;;;5010349;28;20050;-65
2022/10/16 10:44:04;;;;;;;1.02;0.82;;;;;;;;;;5011425;28;20504;-65
2022/10/16 10:46:51;;;;;;;2.63;1.60;;;;;;;;;;5011408;28;20042;-65
2022/10/16 10:49:45;;;;;;;3.05;1.00;;;;;;;;;;5009745;28;20112;-65
2022/10/16 10:52:59;;;;;;;3.50;1.00;;;;;;;;;;5011321;28;20057;-65
2022/10/16 10:55:46;;;;;;;1.63;1.00;;;;;;;;;;5010240;28;20054;-64
2022/10/16 10:58:47;;;;;;;2.78;0.90;;;;;;;;;;5010914;28;20413;-66
2022/10/16 11:01:47;;;;;;;1.40;1.00;;;;;;;;;;5013724;28;20096;-66
2022/10/16 11:04:58;;;;;;;3.70;1.40;;;;;;;;;;5004519;28;20057;-65
2022/10/16 11:07:30;;;;;;;2.90;1.13;;;;;;;;;;4992822;28;20043;-65
2022/10/16 11:10:09;;;;;;;1.63;0.98;;;;;;;;;;4992203;28;20086;-65
2022/10/16 11:12:39;;;;;;;1.58;0.90;;;;;;;;;;4989905;28;20050;-64
2022/10/16 11:15:35;;;;;;;6.00;1.20;;;;;;;;;;5012788;28;20046;-64
2022/10/16 11:18:38;;;;;;;1.10;1.00;;;;;;;;;;5012884;28;20081;-64
2022/10/16 11:21:07;;;;;;;9.23;1.60;;;;;;;;;;5011480;28;20397;-64
2022/10/16 11:23:48;;;;;;;1.20;1.10;;;;;;;;;;5013077;28;20050;-64
2022/10/16 11:26:25;;;;;;;2.83;1.00;;;;;;;;;;5014518;28;20061;-63
2022/10/16 11:28:56;;;;;;;2.05;1.00;;;;;;;;;;4996949;28;20085;-64
2022/10/16 11:31:41;;;;;;;1.52;0.90;;;;;;;;;;5012894;28;20546;-65
2022/10/16 11:34:22;;;;;;;6.13;1.27;;;;;;;;;;4997747;28;20479;-64
2022/10/16 11:36:51;;;;;;;2.53;1.40;;;;;;;;;;4996987;28;20045;-64
2022/10/16 11:39:30;;;;;;;3.03;1.08;;;;;;;;;;5011979;28;20263;-64
2022/10/16 11:42:02;;;;;;;1.98;0.98;;;;;;;;;;5012433;28;20108;-64
2022/10/16 11:44:32;;;;;;;;;;;;;;;;;;5013020;28;20049;-65
2022/10/16 11:47:36;;;;;;;1.70;1.00;;;;;;;;;;5014169;28;19921;-65
2022/10/16 11:50:38;;;;;;;2.05;1.00;;;;;;;;;;5013879;28;20149;-63
2022/10/16 11:53:14;;;;;;;1.00;0.90;;;;;;;;;;4998569;28;20084;-63
2022/10/16 11:55:42;;;;;;;1.55;0.80;;;;;;;;;;5012836;28;20045;-63
2022/10/16 11:58:36;;;;;;;2.78;0.90;;;;;;;;;;4996418;28;20433;-66
2022/10/16 12:01:27;;;;;;;1.17;0.90;;;;;;;;;;5012654;28;20050;-65
2022/10/16 12:03:56;;;;;;;2.97;0.90;;;;;;;;;;4998443;28;20053;-65
2022/10/16 12:06:42;;;;;;;2.40;0.90;;;;;;;;;;5014615;28;20456;-65
2022/10/16 12:09:29;;;;;;;1.38;1.00;;;;;;;;;;5013486;28;20058;-65
2022/10/16 12:11:56;;;;;;;3.63;1.45;;;;;;;;;;5012477;28;20049;-65
2022/10/16 12:14:36;;;;;;;2.90;0.73;;;;;;;;;;5012515;28;20049;-65
2022/10/16 12:17:35;;;;;;;3.95;1.10;;;;;;;;;;5012745;28;20137;-64
2022/10/16 12:20:11;;;;;;;3.08;0.80;;;;;;;;;;5011700;28;20084;-66
2022/10/16 12:22:53;;;;;;;4.00;0.90;;;;;;;;;;5013648;28;20053;-65
2022/10/16 12:25:37;;;;;;;1.10;0.88;;;;;;;;;;5012502;28;20484;-65
2022/10/16 12:28:27;;;;;;;3.88;0.80;;;;;;;;;;4996271;28;20045;-66
2022/10/16 12:30:59;;;;;;;1.50;1.00;;;;;;;;;;4996071;28;20416;-65
2022/10/16 12:33:40;;;;;;;1.27;0.87;;;;;;;;;;5011752;28;20050;-65
2022/10/16 12:36:31;;;;;;;1.63;0.90;;;;;;;;;;5011960;28;20285;-66
2022/10/16 12:38:57;;;;;;;1.20;1.10;;;;;;;;;;5006358;28;20108;-66
2022/10/16 12:41:28;;;;;;;2.00;1.13;;;;;;;;;;4995611;28;20452;-64
2022/10/16 12:43:54;;;;;;;2.05;1.00;;;;;;;;;;5011895;28;20058;-66
2022/10/16 12:46:26;;;;;;;1.73;0.68;;;;;;;;;;4995614;28;20053;-65
2022/10/16 12:48:53;;;;;;;3.92;0.70;;;;;;;;;;4979265;28;20045;-65
2022/10/16 12:51:36;;;;;;;1.48;0.80;;;;;;;;;;5012762;28;20524;-65
2022/10/16 12:54:14;;;;;;;1.55;0.77;;;;;;;;;;5012836;28;20108;-65
2022/10/16 12:57:05;;;;;;;2.35;1.10;;;;;;;;;;5011446;28;20504;-64
2022/10/16 12:59:56;;;;;;;2.42;1.00;;;;;;;;;;5012011;28;20065;-68
2022/10/16 13:02:41;;;;;;;2.78;0.98;;;;;;;;;;5012868;28;20045;-64
2022/10/16 13:05:14;;;;;;;1.35;0.80;;;;;;;;;;5012689;28;20050;-64
2022/10/16 13:07:53;;;;;;;1.85;1.00;;;;;;;;;;5012455;28;20563;-65
2022/10/16 13:10:27;;;;;;;1.80;0.80;;;;;;;;;;5012455;28;20053;-65
2022/10/16 13:13:20;;;;;;;1.38;0.90;;;;;;;;;;4995677;28;20046;-67
2022/10/16 13:15:46;;;;;;;3.28;1.08;;;;;;;;;;4996807;28;20053;-64
2022/10/16 13:18:36;;;;;;;1.00;0.80;;;;;;;;;;5011808;28;20050;-65
2022/10/16 13:21:12;;;;;;;3.25;0.90;;;;;;;;;;5010847;28;20489;-64
2022/10/16 13:24:09;;;;;;;2.05;0.88;;;;;;;;;;5012332;28;20436;-64
2022/10/16 13:26:41;;;;;;;1.83;1.02;;;;;;;;;;5011344;28;20111;-65
2022/10/16 13:29:08;;;;;;;1.00;0.70;;;;;;;;;;5010498;28;20054;-65
2022/10/16 13:31:37;;;;;;;1.33;1.00;;;;;;;;;;5011055;28;20100;-65
2022/10/16 13:34:04;;;;;;;3.13;0.80;;;;;;;;;;5012179;28;20563;-65
2022/10/16 13:36:55;;;;;;;3.17;1.10;;;;;;;;;;4994905;28;20103;-65
2022/10/16 13:39:25;;;;;;;3.08;1.00;;;;;;;;;;5011830;28;20476;-65
2022/10/16 13:42:02;;;;;;;0.95;0.85;;;;;;;;;;5012201;28;20456;-65
2022/10/16 13:44:47;;;;;;;2.63;1.00;;;;;;;;;;5011231;28;20141;-66
2022/10/16 13:47:19;;;;;;;2.13;1.52;;;;;;;;;;5010716;28;20046;-65
2022/10/16 13:49:46;;;;;;;2.13;1.10;;;;;;;;;;5011729;28;20050;-65
2022/10/16 13:52:20;;;;;;;4.82;1.35;;;;;;;;;;5010914;28;20706;-65
2022/10/16 13:54:47;;;;;;;2.25;0.90;;;;;;;;;;5010862;28;20049;-65
2022/10/16 13:57:15;;;;;;;3.50;1.92;;;;;;;;;;4994445;28;20493;-66
2022/10/16 13:59:53;;;;;;;1.90;1.70;;;;;;;;;;5011654;28;20125;-65
2022/10/16 14:02:30;;;;;;;2.55;1.10;;;;;;;;;;4994687;28;20096;-63
2022/10/16 14:04:57;;;;;;;1.60;1.25;;;;;;;;;;5011992;28;20046;-65
2022/10/16 14:07:28;;;;;;;3.53;1.00;;;;;;;;;;5010780;28;20042;-64
2022/10/16 14:09:55;;;;;;;3.90;1.00;;;;;;;;;;4994515;28;20057;-65
2022/10/16 14:12:22;;;;;;;2.38;1.00;;;;;;;;;;5010573;28;20142;-65
2022/10/16 14:14:54;;;;;;;2.17;0.90;;;;;;;;;;4995035;28;20523;-65
2022/10/16 14:17:32;;;;;;;2.75;1.00;;;;;;;;;;5010688;28;20076;-63
2022/10/16 14:20:00;;;;;;;1.27;1.17;;;;;;;;;;4993932;28;20120;-63
2022/10/16 14:22:39;;;;;;;;;;;;;;;;;;5010991;28;20108;-63
2022/10/16 14:25:18;;;;;;;1.38;1.10;;;;;;;;;;5010793;28;19922;-65
2022/10/16 14:27:46;;;;;;;2.92;1.00;;;;;;;;;;5011542;28;20476;-66
2022/10/16 14:30:14;;;;;;;1.35;0.90;;;;;;;;;;4993667;28;20493;-65
2022/10/16 14:32:42;;;;;;;1.23;1.13;;;;;;;;;;4994810;28;20057;-65
2022/10/16 14:35:32;;;;;;;1.50;1.02;;;;;;;;;;4997894;28;20413;-65
2022/10/16 14:38:00;;;;;;;1.27;0.93;;;;;;;;;;5013722;28;20116;-64
2022/10/16 14:40:32;;;;;;;1.75;1.15;;;;;;;;;;4997960;28;20076;-64
2022/10/16 14:43:00;;;;;;;3.28;1.05;;;;;;;;;;4998590;28;20131;-65
2022/10/16 14:45:29;;;;;;;2.58;1.02;;;;;;;;;;5014072;28;20428;-64
2022/10/16 14:47:58;;;;;;;1.30;0.80;;;;;;;;;;5013397;28;20046;-65
2022/10/16 14:50:24;;;;;;;3.83;1.05;;;;;;;;;;4997795;28;20054;-66
2022/10/16 14:52:51;;;;;;;3.80;1.10;;;;;;;;;;5013876;28;20054;-64
2022/10/16 14:55:18;;;;;;;2.03;0.98;;;;;;;;;;5015168;28;20050;-65
2022/10/16 14:57:44;;;;;;;5.68;1.58;;;;;;;;;;4997464;28;20097;-64
2022/10/16 15:00:22;;;;;;;2.75;0.95;;;;;;;;;;5013476;28;20104;-65
2022/10/16 15:02:49;;;;;;;1.55;1.15;;;;;;;;;;4997460;28;20501;-65
2022/10/16 15:05:26;;;;;;;1.65;1.00;;;;;;;;;;4997502;28;20103;-65
2022/10/16 15:07:55;;;;;;;2.17;1.00;;;;;;;;;;5013192;28;20046;-65
2022/10/16 15:10:23;;;;;;;4.13;1.20;;;;;;;;;;5014712;28;20157;-64
2022/10/16 15:12:50;;;;;;;1.23;1.10;;;;;;;;;;5014701;28;20520;-64